Time;durP1;ratioP1;P1;durP2;ratioP2;P2;SDS_P1;SDS_P2;PMS_P1;PMS_P2;Temp;Humidity;BMP_temperature;BMP_pressure;BME280_temperature;BME280_humidity;BME280_pressure;Samples;Min_cycle;Max_cycle;Signal;HPM_P1;HPM_P2
2022/04/01 00:01:42;;;;;;;11.67;8.40;;;;;;;4.64;100.00;152553.91;5029844;28;20825;-79
2022/04/01 00:04:18;;;;;;;12.27;8.50;;;;;;;4.56;100.00;152534.59;5020778;28;20546;-79
2022/04/01 00:06:54;;;;;;;12.63;8.37;;;;;;;4.64;100.00;152555.19;5027989;28;20500;-79
2022/04/01 00:09:31;;;;;;;9.93;7.33;;;;;;;4.64;100.00;152553.91;5029414;28;20477;-79
2022/04/01 00:12:08;;;;;;;12.37;9.60;;;;;;;4.59;100.00;152541.03;5042011;28;20478;-79
2022/04/01 00:14:43;;;;;;;10.47;8.07;;;;;;;4.55;100.00;152532.03;5037068;28;20442;-79
2022/04/01 00:17:18;;;;;;;11.17;8.60;;;;;;;4.57;100.00;152537.19;5021544;28;20449;-79
2022/04/01 00:19:54;;;;;;;11.37;8.70;;;;;;;4.56;100.00;152534.59;5027464;28;20430;-79
2022/04/01 00:22:30;;;;;;;12.53;9.00;;;;;;;4.57;100.00;152535.88;5054574;28;20950;-79
2022/04/01 00:25:08;;;;;;;10.50;7.93;;;;;;;4.56;100.00;152534.59;5022750;28;20438;-79
2022/04/01 00:27:43;;;;;;;12.73;8.90;;;;;;;4.56;100.00;152534.59;5037194;28;20474;-79
2022/04/01 00:30:20;;;;;;;12.33;8.63;;;;;;;4.54;100.00;152529.44;5036600;28;20926;-79
2022/04/01 00:32:55;;;;;;;14.00;9.30;;;;;;;4.54;100.00;152528.13;5036948;28;20435;-79
2022/04/01 00:35:32;;;;;;;12.17;8.90;;;;;;;4.52;100.00;152524.28;5022095;28;20450;-79
2022/04/01 00:38:08;;;;;;;12.13;8.90;;;;;;;4.48;100.00;152512.66;5027065;28;20435;-79
2022/04/01 00:40:45;;;;;;;11.93;8.70;;;;;;;4.49;100.00;152515.25;5034881;28;20509;-79
2022/04/01 00:43:26;;;;;;;12.57;8.43;;;;;;;4.49;100.00;152515.25;5035582;28;20443;-79
2022/04/01 00:46:02;;;;;;;12.27;9.17;;;;;;;4.49;100.00;152516.56;5041562;28;20455;-79
2022/04/01 00:48:37;;;;;;;13.50;9.93;;;;;;;4.48;100.00;152513.97;5034717;28;20913;-79
2022/04/01 00:51:15;;;;;;;13.80;10.00;;;;;;;4.48;100.00;152513.97;5050879;28;20784;-79
2022/04/01 00:53:51;;;;;;;13.37;9.20;;;;;;;4.47;100.00;152510.13;5039268;28;20524;-79
2022/04/01 00:56:31;;;;;;;14.73;9.67;;;;;;;4.45;100.00;152506.22;5033681;28;20447;-79
2022/04/01 00:59:08;;;;;;;11.60;8.87;;;;;;;4.43;100.00;152501.09;5034111;28;20439;-79
2022/04/01 01:01:44;;;;;;;11.57;9.23;;;;;;;4.47;100.00;152510.13;5035624;28;20494;-79
2022/04/01 01:04:20;;;;;;;13.10;9.00;;;;;;;4.44;100.00;152503.69;5044751;28;20451;-79
2022/04/01 01:06:57;;;;;;;14.63;9.50;;;;;;;4.36;100.00;152483.06;5037172;28;20502;-79
2022/04/01 01:09:33;;;;;;;12.17;9.77;;;;;;;4.25;100.00;152454.72;5034889;28;20943;-79
2022/04/01 01:12:11;;;;;;;12.93;9.57;;;;;;;4.23;100.00;152449.59;5013059;28;20508;-79
2022/04/01 01:14:47;;;;;;;16.60;10.37;;;;;;;4.23;100.00;152449.59;4987341;28;21138;-79
2022/04/01 01:17:23;;;;;;;12.63;8.83;;;;;;;4.23;100.00;152449.59;5013985;28;20467;-79
2022/04/01 01:19:58;;;;;;;12.27;8.80;;;;;;;4.09;100.00;152413.50;5013446;28;20818;-79
2022/04/01 01:22:34;;;;;;;12.57;8.57;;;;;;;4.17;100.00;152434.13;4997436;28;20456;-79
2022/04/01 01:25:12;;;;;;;18.10;9.50;;;;;;;4.15;100.00;152428.97;5012521;28;20444;-79
2022/04/01 01:27:48;;;;;;;14.47;9.90;;;;;;;4.10;100.00;152416.09;5012540;28;20910;-79
2022/04/01 01:30:24;;;;;;;13.33;9.37;;;;;;;4.10;100.00;152416.09;5013566;28;20503;-79
2022/04/01 01:33:01;;;;;;;14.27;9.43;;;;;;;4.09;100.00;152414.81;4998612;28;20449;-79
2022/04/01 01:35:39;;;;;;;13.13;8.50;;;;;;;4.13;100.00;152425.09;5027960;28;20453;-79
2022/04/01 01:38:17;;;;;;;12.60;8.50;;;;;;;4.12;100.00;152421.25;5028492;28;20445;-79
2022/04/01 01:40:55;;;;;;;11.63;8.97;;;;;;;3.98;100.00;152386.47;5014575;28;20457;-79
2022/04/01 01:43:32;;;;;;;11.20;8.40;;;;;;;4.01;100.00;152392.91;5007795;28;20505;-79
2022/04/01 01:46:08;;;;;;;10.07;7.77;;;;;;;4.03;100.00;152399.34;4994485;28;20496;-79
2022/04/01 01:48:44;;;;;;;10.33;7.90;;;;;;;4.04;100.00;152400.63;4993753;28;20465;-79
2022/04/01 01:57:07;;;;;;;10.30;7.43;;;;;;;4.04;100.00;152401.94;4994580;28;20438;-79
2022/04/01 01:59:45;;;;;;;12.10;8.80;;;;;;;3.98;100.00;152385.16;4978010;28;20532;-78
2022/04/01 02:02:21;;;;;;;10.97;8.20;;;;;;;3.99;100.00;152389.06;4978760;28;20457;-79
2022/04/01 02:04:57;;;;;;;11.30;8.23;;;;;;;4.01;100.00;152392.91;5010564;28;20444;-79
2022/04/01 02:07:32;;;;;;;11.17;8.90;;;;;;;3.90;100.00;152365.84;5011765;28;20479;-79
2022/04/01 02:10:08;;;;;;;9.17;6.83;;;;;;;3.93;100.00;152372.28;5012960;28;20531;-79
2022/04/01 02:12:46;;;;;;;12.53;8.20;;;;;;;4.02;100.00;152395.50;5010761;28;20512;-79
2022/04/01 02:15:21;;;;;;;12.57;9.90;;;;;;;3.98;100.00;152386.47;4996462;28;20824;-79
2022/04/01 02:17:57;;;;;;;12.80;9.30;;;;;;;3.94;100.00;152376.19;4992863;28;20532;-79
2022/04/01 02:20:34;;;;;;;10.83;8.17;;;;;;;3.90;100.00;152365.84;5008856;28;20476;-79
2022/04/01 02:23:09;;;;;;;12.50;9.03;;;;;;;3.90;100.00;152365.84;5020439;28;20441;-79
2022/04/01 02:25:45;;;;;;;11.57;8.60;;;;;;;3.92;100.00;152371.00;5007324;28;20487;-79
2022/04/01 02:28:23;;;;;;;12.23;9.00;;;;;;;3.93;100.00;152372.28;4999594;28;20471;-79
2022/04/01 02:30:59;;;;;;;10.50;8.33;;;;;;;3.91;100.00;152368.47;5012847;28;20444;-79
2022/04/01 02:33:54;;;;;;;12.90;9.03;;;;;;;3.84;100.00;152349.16;5010092;28;20453;-79
2022/04/01 02:36:30;;;;;;;11.50;8.43;;;;;;;3.89;100.00;152362.00;5010524;28;20448;-79
2022/04/01 02:39:06;;;;;;;12.70;8.50;;;;;;;3.83;100.00;152347.84;4995624;28;20443;-79
2022/04/01 02:41:41;;;;;;;11.07;8.00;;;;;;;3.84;100.00;152349.16;5011731;28;20492;-80
2022/04/01 02:44:19;;;;;;;11.53;8.80;;;;;;;3.80;100.00;152338.81;4995086;28;20448;-79
2022/04/01 02:46:54;;;;;;;12.10;9.53;;;;;;;3.79;100.00;152336.22;5026015;28;20452;-79
2022/04/01 02:49:30;;;;;;;14.00;10.23;;;;;;;3.81;100.00;152341.41;4999014;28;20440;-79
2022/04/01 02:52:13;;;;;;;13.70;9.90;;;;;;;3.80;100.00;152338.81;4996332;28;20492;-79
2022/04/01 02:54:52;;;;;;;13.47;9.87;;;;;;;3.82;100.00;152343.97;4996344;28;20866;-80
2022/04/01 02:57:27;;;;;;;11.40;8.77;;;;;;;3.79;100.00;152336.22;5026667;28;20499;-79
2022/04/01 03:00:09;;;;;;;15.47;9.93;;;;;;;3.80;100.00;152340.13;5006960;28;20520;-79
2022/04/01 03:02:47;;;;;;;13.03;9.80;;;;;;;3.82;100.00;152345.25;5001962;28;20885;-79
2022/04/01 03:05:23;;;;;;;12.13;9.23;;;;;;;3.78;100.00;152333.69;4995901;28;20523;-79
2022/04/01 03:07:59;;;;;;;14.50;10.30;;;;;;;3.81;100.00;152341.41;5011995;28;20475;-79
2022/04/01 03:10:35;;;;;;;14.43;10.10;;;;;;;3.80;100.00;152340.13;5009844;28;20939;-79
2022/04/01 03:13:10;;;;;;;13.30;11.00;;;;;;;3.86;100.00;152354.28;5015755;28;20432;-79
2022/04/01 03:16:06;;;;;;;14.20;10.60;;;;;;;3.87;100.00;152358.13;5016308;28;20443;-79
2022/04/01 03:18:50;;;;;;;13.73;10.50;;;;;;;3.85;100.00;152351.69;5031179;28;20471;-79
2022/04/01 03:21:26;;;;;;;13.50;10.27;;;;;;;3.81;100.00;152342.72;5028993;28;20447;-79
2022/04/01 03:24:02;;;;;;;14.27;10.80;;;;;;;3.84;100.00;152349.16;5010317;28;20531;-79
2022/04/01 03:26:39;;;;;;;13.47;9.60;;;;;;;3.85;100.00;152351.69;5016236;28;20541;-79
2022/04/01 03:29:15;;;;;;;14.70;10.80;;;;;;;3.83;100.00;152347.84;5015685;28;20467;-79
2022/04/01 03:31:54;;;;;;;14.10;10.40;;;;;;;3.85;100.00;152351.69;5014218;28;20788;-79
2022/04/01 03:34:30;;;;;;;14.60;10.17;;;;;;;3.83;100.00;152347.84;5026444;28;20462;-80
2022/04/01 03:37:06;;;;;;;19.33;12.00;;;;;;;3.76;100.00;152328.53;5017716;28;20779;-79
2022/04/01 03:39:42;;;;;;;16.17;10.20;;;;;;;3.75;100.00;152325.94;5014964;28;20456;-79
2022/04/01 03:42:20;;;;;;;17.57;11.70;;;;;;;3.72;100.00;152319.50;5008396;28;20966;-79
2022/04/01 03:44:56;;;;;;;14.27;10.87;;;;;;;3.69;100.00;152313.09;5000812;28;20444;-79
2022/04/01 03:47:59;;;;;;;13.87;9.80;;;;;;;3.69;100.00;152311.78;5025635;28;20451;-79
2022/04/01 03:50:36;;;;;;;18.40;11.57;;;;;;;3.69;100.00;152311.78;5035773;28;20448;-79
2022/04/01 03:53:11;;;;;;;16.67;11.13;;;;;;;3.68;100.00;152310.50;5033640;28;20451;-79
2022/04/01 03:55:49;;;;;;;15.20;9.83;;;;;;;3.63;100.00;152297.63;5021348;28;20464;-79
2022/04/01 03:58:47;;;;;;;12.20;9.20;;;;;;;3.71;100.00;152315.69;5016990;28;20519;-79
2022/04/01 04:01:27;;;;;;;12.50;10.33;;;;;;;3.65;100.00;152302.75;5033951;28;20796;-78
2022/04/01 04:04:05;;;;;;;12.07;9.30;;;;;;;3.68;100.00;152310.50;5015922;28;20452;-79
2022/04/01 04:06:41;;;;;;;14.17;9.17;;;;;;;3.68;100.00;152309.19;5015611;28;20447;-79
2022/04/01 04:09:17;;;;;;;14.20;9.40;;;;;;;3.64;100.00;152300.22;5014584;28;20499;-79
2022/04/01 04:11:56;;;;;;;12.30;8.90;;;;;;;3.68;100.00;152310.50;4998516;28;20828;-79
2022/04/01 04:14:36;;;;;;;12.77;9.17;;;;;;;3.69;100.00;152313.09;4997557;28;20444;-79
2022/04/01 04:17:14;;;;;;;12.90;10.60;;;;;;;3.59;100.00;152286.03;5030995;28;20844;-79
2022/04/01 04:19:55;;;;;;;15.77;10.87;;;;;;;3.63;100.00;152297.63;5018374;28;20443;-79
2022/04/01 04:22:35;;;;;;;13.97;11.03;;;;;;;3.54;100.00;152274.47;5019285;28;20792;-79
2022/04/01 04:25:14;;;;;;;13.50;9.43;;;;;;;3.50;100.00;152264.16;5043908;28;20455;-79
2022/04/01 04:27:55;;;;;;;13.00;8.93;;;;;;;3.51;100.00;152266.75;5032147;28;20472;-79
2022/04/01 04:30:33;;;;;;;13.27;9.50;;;;;;;3.47;100.00;152255.13;5033532;28;20436;-79
2022/04/01 04:33:33;;;;;;;13.30;9.60;;;;;;;3.51;100.00;152266.75;5030460;28;20459;-79
2022/04/01 04:36:12;;;;;;;13.60;10.10;;;;;;;3.58;100.00;152284.75;5016614;28;20782;-79
2022/04/01 04:39:04;;;;;;;14.20;10.00;;;;;;;3.59;100.00;152286.03;5032562;28;20447;-79
2022/04/01 04:41:40;;;;;;;13.27;10.70;;;;;;;3.55;100.00;152277.03;5018863;28;20947;-79
2022/04/01 04:44:18;;;;;;;13.60;9.63;;;;;;;3.51;100.00;152266.75;5018626;28;20432;-79
2022/04/01 04:46:54;;;;;;;13.37;9.30;;;;;;;3.41;100.00;152241.00;5017496;28;20451;-79
2022/04/01 04:49:32;;;;;;;15.20;9.40;;;;;;;3.38;100.00;152233.28;5017627;28;20961;-79
2022/04/01 04:52:11;;;;;;;12.00;8.93;;;;;;;3.46;100.00;152253.88;5017348;28;20439;-79
2022/04/01 04:54:56;;;;;;;15.30;10.10;;;;;;;3.40;100.00;152238.41;5032881;28;20771;-79
2022/04/01 04:57:38;;;;;;;11.37;9.87;;;;;;;3.39;100.00;152234.59;5031552;28;20440;-79
2022/04/01 05:00:19;;;;;;;12.03;9.07;;;;;;;3.38;100.00;152232.00;5033344;28;20786;-79
2022/04/01 05:03:23;;;;;;;11.80;8.87;;;;;;;3.38;100.00;152233.28;5012492;28;20480;-79
2022/04/01 05:06:00;;;;;;;11.63;9.63;;;;;;;3.37;100.00;152230.69;5023336;28;20522;-76
2022/04/01 05:08:49;;;;;;;10.13;7.80;;;;;;;3.29;100.00;152210.09;5030958;28;20471;-76
2022/04/01 05:11:46;;;;;;;9.90;7.70;;;;;;;3.26;100.00;152202.38;5013853;28;20483;-75
2022/04/01 05:14:33;;;;;;;9.40;7.63;;;;;;;3.26;100.00;152202.38;5016440;28;20443;-76
2022/04/01 05:17:16;;;;;;;9.80;8.03;;;;;;;3.27;100.00;152203.66;5016633;28;20431;-75
2022/04/01 05:19:57;;;;;;;10.37;7.63;;;;;;;3.24;100.00;152197.22;5010984;28;20861;-75
2022/04/01 05:22:42;;;;;;;9.40;7.27;;;;;;;3.13;100.00;152167.63;5016254;28;20442;-74
2022/04/01 05:25:22;;;;;;;10.07;7.50;;;;;;;3.01;100.00;152138.06;5039681;28;20444;-75
2022/04/01 05:28:02;;;;;;;10.60;8.10;;;;;;;3.02;100.00;152140.59;5030778;28;20456;-74
2022/04/01 05:30:46;;;;;;;8.30;7.13;;;;;;;2.97;100.00;152127.75;5015942;28;20487;-75
2022/04/01 05:33:27;;;;;;;11.47;7.67;;;;;;;2.94;100.00;152120.00;5016335;28;20468;-75
2022/04/01 05:36:04;;;;;;;9.73;7.43;;;;;;;3.03;100.00;152144.47;5027992;28;20442;-74
2022/04/01 05:38:40;;;;;;;8.27;6.83;;;;;;;3.01;100.00;152138.06;5032234;28;20447;-75
2022/04/01 05:41:19;;;;;;;10.60;8.00;;;;;;;3.01;100.00;152139.34;5029533;28;20491;-74
2022/04/01 05:43:58;;;;;;;10.00;7.27;;;;;;;3.06;100.00;152150.91;5029705;28;20452;-75
2022/04/01 05:46:47;;;;;;;11.40;7.83;;;;;;;3.07;100.00;152153.50;5043067;28;20823;-76
2022/04/01 05:49:26;;;;;;;10.00;7.73;;;;;;;3.04;100.00;152145.78;5024502;28;20494;-76
2022/04/01 05:52:04;;;;;;;10.20;7.67;;;;;;;3.11;100.00;152163.78;5027609;28;20557;-76
2022/04/01 05:54:42;;;;;;;8.87;7.53;;;;;;;3.08;100.00;152156.06;5018517;28;20856;-75
2022/04/01 05:57:20;;;;;;;11.50;7.90;;;;;;;3.03;100.00;152143.19;5013190;28;20794;-74
2022/04/01 05:59:56;;;;;;;9.30;7.70;;;;;;;3.00;100.00;152135.47;5016738;28;20518;-75
2022/04/01 06:02:38;;;;;;;10.27;7.03;;;;;;;3.04;100.00;152145.78;5016263;28;20444;-75
2022/04/01 06:05:17;;;;;;;10.70;8.23;;;;;;;2.97;100.00;152129.03;5015400;28;20443;-75
2022/04/01 06:08:03;;;;;;;10.80;8.27;;;;;;;2.92;100.00;152116.16;5009066;28;20460;-75
2022/04/01 06:10:45;;;;;;;10.80;8.70;;;;;;;2.93;100.00;152117.47;5017420;28;20643;-75
2022/04/01 06:13:49;;;;;;;10.60;7.63;;;;;;;2.87;100.00;152103.31;5023808;28;20460;-74
2022/04/01 06:17:02;;;;;;;9.33;6.87;;;;;;;2.90;100.00;152111.03;4980532;28;20532;-75
2022/04/01 06:19:45;;;;;;;10.30;7.47;;;;;;;2.94;100.00;152121.31;5017676;28;20452;-74
2022/04/01 06:22:21;;;;;;;11.30;7.63;;;;;;;3.00;100.00;152136.75;4995311;28;20440;-75
2022/04/01 06:25:04;;;;;;;12.60;7.80;;;;;;;3.00;100.00;152135.47;5027820;28;20436;-75
2022/04/01 06:27:44;;;;;;;9.70;7.33;;;;;;;2.88;100.00;152104.59;5027462;28;20444;-74
2022/04/01 06:30:22;;;;;;;9.73;6.40;;;;;;;2.90;100.00;152109.75;5030149;28;20463;-75
2022/04/01 06:33:22;;;;;;;9.30;6.70;;;;;;;2.90;100.00;152111.03;5011598;28;20517;-75
2022/04/01 06:36:27;;;;;;;9.47;7.23;;;;;;;2.89;100.00;152107.16;5026365;28;20447;-76
2022/04/01 06:39:05;;;;;;;8.50;6.70;;;;;;;2.90;100.00;152109.75;5031107;28;20950;-76
2022/04/01 06:41:47;;;;;;;9.20;6.63;;;;;;;2.91;100.00;152112.34;5016223;28;20810;-75
2022/04/01 06:44:52;;;;;;;8.60;6.40;;;;;;;2.85;100.00;152096.88;5020044;28;20436;-76
2022/04/01 06:47:29;;;;;;;9.40;7.03;;;;;;;2.84;100.00;152094.28;5048304;28;20474;-75
2022/04/01 06:50:05;;;;;;;9.40;6.80;;;;;;;2.81;100.00;152087.84;5027543;28;20467;-76
2022/04/01 06:53:00;;;;;;;8.67;6.70;;;;;;;2.87;100.00;152102.00;5030724;28;20456;-76
2022/04/01 06:56:08;;;;;;;9.43;7.50;;;;;;;2.90;100.00;152109.75;5001586;28;20448;-76
2022/04/01 06:58:45;;;;;;;9.50;7.53;;;;;;;2.88;100.00;152104.59;5012711;28;20646;-76
2022/04/01 07:01:20;;;;;;;9.00;7.23;;;;;;;2.90;100.00;152109.75;5025655;28;20465;-76
2022/04/01 07:03:57;;;;;;;10.50;8.00;;;;;;;2.88;100.00;152105.91;5008681;28;20452;-76
2022/04/01 07:06:34;;;;;;;11.03;7.93;;;;;;;2.89;100.00;152107.16;5023177;28;20460;-76
2022/04/01 07:09:10;;;;;;;12.53;8.40;;;;;;;2.84;100.00;152094.28;5022944;28;20480;-76
2022/04/01 07:11:46;;;;;;;11.60;8.00;;;;;;;2.88;100.00;152104.59;5003829;28;20477;-76
2022/04/01 07:14:21;;;;;;;11.77;8.07;;;;;;;2.92;100.00;152114.88;4993488;28;20483;-76
2022/04/01 07:16:56;;;;;;;13.17;7.90;;;;;;;2.92;100.00;152114.88;4997293;28;20468;-76
2022/04/01 07:19:33;;;;;;;10.03;7.73;;;;;;;2.89;100.00;152107.16;4994752;28;20951;-75
2022/04/01 07:22:09;;;;;;;10.20;8.43;;;;;;;2.87;100.00;152102.00;5011640;28;20520;-75
2022/04/01 07:24:44;;;;;;;11.57;8.73;;;;;;;2.92;100.00;152114.88;5014309;28;20452;-76
2022/04/01 07:27:21;;;;;;;12.40;9.43;;;;;;;2.89;100.00;152108.44;5007297;28;20445;-76
2022/04/01 07:29:57;;;;;;;10.23;7.03;;;;;;;2.92;100.00;152116.16;5015526;28;20483;-76
2022/04/01 07:32:33;;;;;;;13.40;9.30;;;;;;;2.85;100.00;152096.88;5014303;28;20437;-76
2022/04/01 07:35:13;;;;;;;11.27;8.70;;;;;;;2.90;100.00;152111.03;5029995;28;20479;-76
2022/04/01 07:37:49;;;;;;;11.97;9.27;;;;;;;2.88;100.00;152105.91;5007208;28;20920;-76
2022/04/01 07:40:25;;;;;;;10.77;8.70;;;;;;;2.90;100.00;152109.75;5013804;28;20472;-76
2022/04/01 07:43:01;;;;;;;11.70;9.10;;;;;;;2.85;100.00;152096.88;5015387;28;20448;-76
2022/04/01 07:45:37;;;;;;;12.20;10.10;;;;;;;2.85;100.00;152098.19;4998789;28;20436;-76
2022/04/01 07:48:13;;;;;;;11.07;9.10;;;;;;;2.87;100.00;152102.00;5012731;28;20444;-76
2022/04/01 07:50:50;;;;;;;9.97;8.30;;;;;;;2.90;100.00;152109.75;5009961;28;20885;-76
2022/04/01 07:53:26;;;;;;;11.63;8.40;;;;;;;2.85;100.00;152096.88;5012890;28;20547;-76
2022/04/01 07:56:01;;;;;;;11.83;8.70;;;;;;;2.81;100.00;152086.56;5010797;28;20451;-75
2022/04/01 07:58:37;;;;;;;12.43;8.57;;;;;;;2.77;100.00;152076.28;5014153;28;20440;-76
2022/04/01 08:01:12;;;;;;;13.07;8.80;;;;;;;2.78;100.00;152080.13;5014312;28;20813;-76
2022/04/01 08:03:48;;;;;;;14.03;9.00;;;;;;;2.79;100.00;152082.72;4985335;28;20444;-76
2022/04/01 08:06:25;;;;;;;10.50;8.43;;;;;;;2.78;100.00;152078.88;5005165;28;20448;-76
2022/04/01 08:09:01;;;;;;;12.30;8.80;;;;;;;2.81;100.00;152086.56;5014000;28;20465;-75
2022/04/01 08:11:36;;;;;;;11.70;8.60;;;;;;;2.75;100.00;152071.16;5025291;28;20495;-76
2022/04/01 08:14:12;;;;;;;12.73;8.50;;;;;;;2.76;100.00;152073.72;5022154;28;20442;-75
2022/04/01 08:16:48;;;;;;;12.50;9.20;;;;;;;2.76;100.00;152075.00;5036677;28;20438;-75
2022/04/01 08:19:24;;;;;;;15.40;10.70;;;;;;;2.71;100.00;152060.84;5035021;28;20450;-75
2022/04/01 08:22:01;;;;;;;11.23;8.07;;;;;;;2.66;100.00;152048.00;5036061;28;22194;-75
2022/04/01 08:24:37;;;;;;;12.13;8.10;;;;;;;2.66;100.00;152048.00;5022646;28;20446;-75
2022/04/01 08:27:14;;;;;;;12.10;8.37;;;;;;;2.69;100.00;152055.72;5035394;28;20446;-76
2022/04/01 08:29:54;;;;;;;10.83;7.60;;;;;;;2.67;100.00;152051.88;5037256;28;20894;-76
2022/04/01 08:32:32;;;;;;;12.07;9.93;;;;;;;2.67;100.00;152050.56;5053517;28;20492;-76
2022/04/01 08:35:09;;;;;;;13.40;9.83;;;;;;;2.68;100.00;152054.41;5030883;28;20455;-76
2022/04/01 08:37:46;;;;;;;11.77;8.70;;;;;;;2.67;100.00;152050.56;5035689;28;20458;-75
2022/04/01 08:40:22;;;;;;;11.70;8.63;;;;;;;2.59;100.00;152030.00;5036685;28;20806;-76
2022/04/01 08:42:58;;;;;;;12.80;9.03;;;;;;;2.58;100.00;152027.41;5037386;28;20817;-75
2022/04/01 08:45:36;;;;;;;14.27;9.67;;;;;;;2.62;100.00;152038.97;5036089;28;20517;-75
2022/04/01 08:48:12;;;;;;;12.13;8.83;;;;;;;2.70;100.00;152058.31;5035126;28;20479;-76
2022/04/01 08:50:47;;;;;;;11.27;9.03;;;;;;;2.62;100.00;152037.72;5036493;28;20462;-75
2022/04/01 08:53:25;;;;;;;12.60;9.30;;;;;;;2.60;100.00;152033.84;5020340;28;20439;-76
2022/04/01 08:56:00;;;;;;;11.50;9.17;;;;;;;2.59;100.00;152030.00;5019883;28;20454;-75
2022/04/01 08:58:36;;;;;;;10.40;8.40;;;;;;;2.58;100.00;152027.41;5036738;28;20455;-76
2022/04/01 09:01:13;;;;;;;10.10;8.50;;;;;;;2.58;100.00;152027.41;5033442;28;20435;-76
2022/04/01 09:03:49;;;;;;;10.50;8.03;;;;;;;2.58;100.00;152027.41;5021362;28;20542;-76
2022/04/01 09:06:24;;;;;;;10.13;7.33;;;;;;;2.56;100.00;152023.56;5052601;28;20541;-74
2022/04/01 09:09:01;;;;;;;9.57;8.00;;;;;;;2.50;100.00;152006.84;5036377;28;20834;-74
2022/04/01 09:11:37;;;;;;;11.83;8.00;;;;;;;2.51;100.00;152009.41;5037028;28;20482;-74
2022/04/01 09:14:21;;;;;;;13.27;8.20;;;;;;;2.46;100.00;151999.09;5035925;28;20458;-74
2022/04/01 09:16:57;;;;;;;13.87;8.23;;;;;;;2.46;100.00;151999.09;5033644;28;20470;-75
2022/04/01 09:19:34;;;;;;;11.50;8.30;;;;;;;2.51;100.00;152009.41;5050394;28;20442;-75
2022/04/01 09:22:21;;;;;;;10.30;7.90;;;;;;;2.43;100.00;151990.13;5027264;28;20799;-74
2022/04/01 09:25:02;;;;;;;9.43;7.33;;;;;;;2.45;100.00;151995.28;5035789;28;20434;-75
2022/04/01 09:27:44;;;;;;;10.07;7.83;;;;;;;2.39;100.00;151981.13;5034298;28;20532;-75
2022/04/01 09:30:21;;;;;;;11.20;8.43;;;;;;;2.42;100.00;151987.53;5031873;28;20490;-75
2022/04/01 09:32:57;;;;;;;9.43;7.07;;;;;;;2.36;100.00;151972.09;5053560;28;20529;-76
2022/04/01 09:35:34;;;;;;;10.97;7.40;;;;;;;2.31;100.00;151959.25;5036040;28;20446;-75
2022/04/01 09:38:09;;;;;;;9.00;7.27;;;;;;;2.40;100.00;151982.41;5036141;28;20450;-75
2022/04/01 09:40:50;;;;;;;11.20;7.73;;;;;;;2.40;100.00;151983.72;5035940;28;20434;-75
2022/04/01 09:43:26;;;;;;;11.90;8.00;;;;;;;2.42;100.00;151987.53;5033990;28;20537;-75
2022/04/01 09:46:05;;;;;;;10.37;7.87;;;;;;;2.43;100.00;151990.13;5032859;28;20443;-74
2022/04/01 09:48:42;;;;;;;9.10;6.40;;;;;;;2.33;100.00;151964.44;5035548;28;20470;-74
2022/04/01 09:51:17;;;;;;;8.87;6.70;;;;;;;2.31;100.00;151960.53;5035638;28;20558;-75
2022/04/01 09:53:53;;;;;;;10.23;7.70;;;;;;;2.35;100.00;151969.56;5030143;28;20466;-75
2022/04/01 09:56:43;;;;;;;11.00;8.40;;;;;;;2.25;100.00;151945.09;5028394;28;20447;-75
2022/04/01 09:59:19;;;;;;;9.60;7.07;;;;;;;2.27;100.00;151948.97;5034788;28;20474;-75
2022/04/01 10:01:54;;;;;;;7.57;5.50;;;;;;;2.21;100.00;151934.84;5006002;28;20432;-74
2022/04/01 10:04:30;;;;;;;7.43;6.27;;;;;;;2.22;100.00;151937.44;5043208;28;20800;-75
2022/04/01 10:07:06;;;;;;;7.00;5.00;;;;;;;2.28;100.00;151952.81;5051617;28;21029;-75
2022/04/01 10:09:43;;;;;;;7.27;6.00;;;;;;;2.23;100.00;151938.66;5015351;28;20479;-75
2022/04/01 10:12:25;;;;;;;8.03;5.93;;;;;;;2.20;100.00;151932.25;5024519;28;20549;-75
2022/04/01 10:15:01;;;;;;;8.90;5.43;;;;;;;2.24;100.00;151942.56;5012700;28;20435;-74
2022/04/01 10:17:39;;;;;;;7.03;5.70;;;;;;;2.21;100.00;151933.53;5025657;28;20435;-74
2022/04/01 10:20:14;;;;;;;6.03;4.47;;;;;;;2.26;100.00;151947.69;5031615;28;20419;-74
2022/04/01 10:22:51;;;;;;;6.30;4.40;;;;;;;2.20;100.00;151932.25;5033901;28;20461;-75
2022/04/01 10:25:32;;;;;;;5.47;4.60;;;;;;;2.23;100.00;151939.97;5019746;28;20447;-74
2022/04/01 10:28:10;;;;;;;6.27;5.03;;;;;;;2.19;100.00;151929.72;5033207;28;20464;-75
2022/04/01 10:30:52;;;;;;;5.93;4.53;;;;;;;2.15;100.00;151918.09;5033039;28;20842;-75
2022/04/01 10:33:31;;;;;;;5.03;4.27;;;;;;;2.15;100.00;151919.41;5014779;28;20456;-74
2022/04/01 10:36:16;;;;;;;5.07;4.30;;;;;;;2.19;100.00;151929.72;5034830;28;20439;-76
2022/04/01 10:39:00;;;;;;;5.30;4.43;;;;;;;2.23;100.00;151938.66;5051496;28;20449;-75
2022/04/01 10:41:36;;;;;;;6.50;4.30;;;;;;;2.18;100.00;151927.13;5016543;28;20914;-75
2022/04/01 10:44:13;;;;;;;5.43;4.47;;;;;;;2.16;100.00;151921.97;5034550;28;20949;-75
2022/04/01 10:46:57;;;;;;;5.23;4.10;;;;;;;2.15;100.00;151919.41;5034440;28;20451;-75
2022/04/01 10:52:30;;;;;;;5.93;4.10;;;;;;;2.10;100.00;151905.25;5050699;28;20794;-75
2022/04/01 10:55:16;;;;;;;5.67;4.33;;;;;;;2.08;100.00;151901.41;5034892;28;20439;-75
2022/04/01 10:57:52;;;;;;;5.50;4.07;;;;;;;2.12;100.00;151910.44;5034848;28;20442;-75
2022/04/01 11:00:29;;;;;;;4.50;4.10;;;;;;;2.13;100.00;151912.97;5033438;28;20435;-76
2022/04/01 11:03:24;;;;;;;5.17;4.40;;;;;;;2.14;100.00;151916.84;5018997;28;20925;-76
2022/04/01 11:06:23;;;;;;;4.33;3.80;;;;;;;2.03;100.00;151888.56;5045912;28;20439;-75
2022/04/01 11:08:59;;;;;;;5.87;4.63;;;;;;;2.11;100.00;151909.13;5033513;28;20803;-75
2022/04/01 11:11:35;;;;;;;4.37;3.80;;;;;;;2.12;100.00;151911.69;5034100;28;20471;-75
2022/04/01 11:14:11;;;;;;;4.77;4.30;;;;;;;2.22;100.00;151937.44;5035009;28;20944;-75
2022/04/01 11:21:36;;;;;;;5.03;4.53;;;;;;;2.05;100.00;151893.69;5031313;28;20806;-78
2022/04/01 11:24:31;;;;;;;5.07;4.57;;;;;;;2.06;100.00;151896.28;5017629;28;20447;-78
2022/04/01 11:27:08;;;;;;;5.90;5.30;;;;;;;2.01;100.00;151883.44;5033578;28;20467;-78
2022/04/01 11:30:04;;;;;;;7.07;5.67;;;;;;;2.03;100.00;151888.56;5014734;28;20460;-78
2022/04/01 11:32:42;;;;;;;5.00;4.43;;;;;;;1.91;100.00;151856.44;5033877;28;20450;-78
2022/04/01 11:35:22;;;;;;;5.40;4.63;;;;;;;1.80;100.00;151829.44;5052079;28;20435;-78
2022/04/01 11:37:58;;;;;;;5.17;4.67;;;;;;;1.76;100.00;151819.13;5033014;28;20500;-78
2022/04/01 11:40:37;;;;;;;5.47;4.73;;;;;;;1.72;100.00;151808.88;5022737;28;20434;-78
2022/04/01 11:43:15;;;;;;;5.90;4.67;;;;;;;1.76;100.00;151819.13;5032885;28;20439;-78
2022/04/01 11:45:56;;;;;;;6.43;5.63;;;;;;;1.81;100.00;151832.00;5031174;28;20470;-78
2022/04/01 11:48:34;;;;;;;6.17;5.57;;;;;;;1.84;100.00;151839.72;5049397;28;20454;-78
2022/04/01 11:51:14;;;;;;;6.27;5.60;;;;;;;1.80;100.00;151829.44;5032529;28;20470;-78
2022/04/01 11:53:51;;;;;;;6.10;5.50;;;;;;;1.82;100.00;151834.56;5032288;28;20478;-78
2022/04/01 11:56:29;;;;;;;6.87;5.40;;;;;;;1.86;100.00;151844.84;5032697;28;20929;-78
2022/04/01 11:59:07;;;;;;;5.80;5.20;;;;;;;1.89;100.00;151851.25;5034287;28;20480;-78
2022/04/01 12:01:55;;;;;;;6.50;5.70;;;;;;;1.82;100.00;151834.56;5031855;28;20834;-78
2022/04/01 12:04:33;;;;;;;6.70;5.70;;;;;;;1.74;100.00;151814.00;5014533;28;20439;-77
2022/04/01 12:10:18;;;;;;;6.40;4.60;;;;;;;1.57;100.00;151771.59;5035563;28;20434;-78
2022/04/01 12:12:56;;;;;;;5.73;4.90;;;;;;;1.46;100.00;151743.31;5033384;28;20555;-78
2022/04/01 12:15:36;;;;;;;7.60;6.43;;;;;;;1.45;100.00;151739.47;5016956;28;20441;-77
2022/04/01 12:18:13;;;;;;;8.23;6.47;;;;;;;1.44;100.00;151736.88;5030232;28;20453;-78
2022/04/01 12:20:50;;;;;;;8.13;5.90;;;;;;;1.48;100.00;151747.19;5034078;28;20451;-78
2022/04/01 12:23:33;;;;;;;7.33;6.20;;;;;;;1.62;100.00;151783.13;5033816;28;20454;-77
2022/04/01 12:26:17;;;;;;;8.83;6.43;;;;;;;1.62;100.00;151783.13;5041192;28;20928;-77
2022/04/01 12:28:54;;;;;;;7.70;6.03;;;;;;;1.61;100.00;151780.59;5026496;28;20932;-78
2022/04/01 12:31:29;;;;;;;8.10;6.27;;;;;;;1.55;100.00;151766.47;5036616;28;20522;-78